createdAt,value
2022-12-18T00:00:24.417Z,82.40
2022-12-18T00:05:26.425Z,82.40
2022-12-18T00:10:29.573Z,82.49
2022-12-18T00:15:31.570Z,82.67
2022-12-18T00:20:38.191Z,82.57
2022-12-18T00:25:40.241Z,82.68
2022-12-18T00:30:42.768Z,82.61
2022-12-18T00:35:44.779Z,82.49
2022-12-18T00:40:46.782Z,82.54
2022-12-18T00:45:48.859Z,82.36
2022-12-18T00:50:51.910Z,82.41
2022-12-18T00:55:53.926Z,82.53
2022-12-18T01:00:55.967Z,82.64
2022-12-18T01:05:57.982Z,82.83
2022-12-18T01:11:00.015Z,82.80
2022-12-18T01:16:02.274Z,82.72
2022-12-18T01:21:13.768Z,82.80
2022-12-18T01:26:17.271Z,82.71
2022-12-18T01:31:23.451Z,82.69
2022-12-18T01:36:29.321Z,82.63
2022-12-18T01:41:52.399Z,82.65
2022-12-18T01:46:54.426Z,82.85
2022-12-18T01:51:56.502Z,82.94
2022-12-18T01:56:58.529Z,82.90
2022-12-18T02:02:01.615Z,82.93
2022-12-18T02:07:06.771Z,82.82
2022-12-18T02:12:18.702Z,82.60
2022-12-18T02:17:24.614Z,82.60
2022-12-18T02:22:35.498Z,82.70
2022-12-18T02:27:39.167Z,82.92
2022-12-18T02:32:46.148Z,83.25
2022-12-18T02:37:48.554Z,83.40
2022-12-18T02:42:50.727Z,83.39
2022-12-18T02:47:52.818Z,83.52
2022-12-18T02:53:20.754Z,83.59
2022-12-18T02:58:25.750Z,83.54
2022-12-18T03:03:45.825Z,83.74
2022-12-18T03:08:51.945Z,83.70
2022-12-18T03:13:58.240Z,83.70
2022-12-18T03:19:04.655Z,83.73
2022-12-18T03:24:10.337Z,83.43
2022-12-18T03:29:45.358Z,83.59
2022-12-18T03:34:51.879Z,83.63
2022-12-18T03:39:54.076Z,83.68
2022-12-18T03:45:09.010Z,83.69
2022-12-18T03:50:20.960Z,83.63
2022-12-18T03:55:26.399Z,83.54
2022-12-18T04:00:30.410Z,83.90
2022-12-18T04:05:36.390Z,83.91
2022-12-18T04:10:38.484Z,83.68
2022-12-18T04:15:41.273Z,83.64
2022-12-18T04:20:43.297Z,83.49
2022-12-18T04:25:45.295Z,83.56
2022-12-18T04:30:47.409Z,83.46
2022-12-18T04:35:49.928Z,83.39
2022-12-18T04:40:51.928Z,83.32
2022-12-18T04:45:53.948Z,83.22
2022-12-18T04:50:56.012Z,83.22
2022-12-18T04:56:13.266Z,83.41
2022-12-18T05:01:17.595Z,83.37
2022-12-18T05:06:19.789Z,83.54
2022-12-18T05:11:21.801Z,83.72
2022-12-18T05:16:24.062Z,83.62
2022-12-18T05:21:26.326Z,83.68
2022-12-18T05:26:28.334Z,83.95
2022-12-18T05:31:34.602Z,84.14
2022-12-18T05:36:39.634Z,83.88
2022-12-18T05:41:41.755Z,83.74
2022-12-18T05:46:44.589Z,83.77
2022-12-18T05:51:46.985Z,84.11
2022-12-18T05:56:49.175Z,84.10
2022-12-18T06:01:51.378Z,83.73
2022-12-18T06:06:53.470Z,83.72
2022-12-18T06:11:55.469Z,83.79
2022-12-18T06:16:57.597Z,83.67
2022-12-18T06:21:59.969Z,83.74
2022-12-18T06:27:01.947Z,83.97
2022-12-18T06:32:04.146Z,84.16
2022-12-18T06:37:06.177Z,84.45
2022-12-18T06:42:08.220Z,84.89
2022-12-18T06:47:10.578Z,84.92
2022-12-18T06:52:12.825Z,84.88
2022-12-18T06:57:14.886Z,84.72
2022-12-18T07:02:17.154Z,84.62
2022-12-18T07:07:19.345Z,84.45
2022-12-18T07:12:21.349Z,84.40
2022-12-18T07:17:23.393Z,84.44
2022-12-18T07:22:26.783Z,84.56
2022-12-18T07:27:28.835Z,84.45
2022-12-18T07:32:31.571Z,84.06
2022-12-18T07:37:33.975Z,83.85
2022-12-18T07:42:37.084Z,83.37
2022-12-18T07:47:39.205Z,83.04
2022-12-18T07:52:41.242Z,82.32
2022-12-18T07:57:53.301Z,81.78
2022-12-18T08:02:57.886Z,80.84
2022-12-18T08:07:59.941Z,80.23
2022-12-18T08:13:05.148Z,79.24
2022-12-18T08:18:12.704Z,77.55
2022-12-18T08:23:16.240Z,76.78
2022-12-18T08:28:18.594Z,75.06
2022-12-18T08:33:20.681Z,74.27
2022-12-18T08:38:24.262Z,73.27
2022-12-18T08:43:44.561Z,72.68
2022-12-18T08:48:47.346Z,71.09
2022-12-18T08:53:49.430Z,70.68
2022-12-18T08:58:55.571Z,69.36
2022-12-18T09:03:57.610Z,68.27
2022-12-18T09:08:59.759Z,67.32
2022-12-18T09:14:02.976Z,67.03
2022-12-18T09:19:05.776Z,67.56
2022-12-18T09:24:14.387Z,66.93
2022-12-18T09:29:18.756Z,66.96
2022-12-18T09:34:22.892Z,66.45
2022-12-18T09:39:25.134Z,65.47
2022-12-18T09:44:47.051Z,65.00
2022-12-18T09:49:53.826Z,63.89
2022-12-18T09:55:05.275Z,57.64
2022-12-18T10:00:20.046Z,55.62
2022-12-18T10:05:36.857Z,51.12
2022-12-18T10:10:49.636Z,42.75
2022-12-18T10:16:11.711Z,41.42
2022-12-18T10:21:20.837Z,37.46
2022-12-18T10:26:23.050Z,36.32
2022-12-18T10:31:25.737Z,33.31
2022-12-18T10:36:27.917Z,29.16
2022-12-18T10:41:31.860Z,26.84
2022-12-18T10:46:33.993Z,23.33
2022-12-18T10:51:38.577Z,22.90
2022-12-18T10:56:41.112Z,20.05
2022-12-18T11:01:58.203Z,17.90
2022-12-18T11:07:03.911Z,18.30
2022-12-18T11:12:29.434Z,17.79
2022-12-18T11:17:36.725Z,16.80
2022-12-18T11:22:39.475Z,15.90
2022-12-18T11:27:41.722Z,15.11
2022-12-18T11:32:48.205Z,15.16
2022-12-18T11:38:00.450Z,15.00
2022-12-18T11:43:17.948Z,15.86
2022-12-18T11:49:12.696Z,16.08
2022-12-18T11:54:17.071Z,20.81
2022-12-18T11:59:41.243Z,17.46
2022-12-18T12:04:46.990Z,15.39
2022-12-18T12:10:13.185Z,14.65
2022-12-18T12:15:37.262Z,14.52
2022-12-18T12:20:47.033Z,14.91
2022-12-18T12:26:00.422Z,14.75
2022-12-18T12:31:21.074Z,19.74
2022-12-18T12:36:23.038Z,22.79
2022-12-18T12:41:47.522Z,25.29
2022-12-18T12:46:52.908Z,30.76
2022-12-18T12:52:04.679Z,32.48
2022-12-18T12:57:34.656Z,33.71
2022-12-18T13:02:46.863Z,35.15
2022-12-18T13:07:59.290Z,38.92
2022-12-18T13:13:04.385Z,40.72
2022-12-18T13:18:10.327Z,42.31
2022-12-18T13:23:24.627Z,44.17
2022-12-18T13:28:46.023Z,44.95
2022-12-18T13:34:24.568Z,46.75
2022-12-18T13:39:23.828Z,47.01
2022-12-18T13:44:41.638Z,48.53
2022-12-18T13:49:45.340Z,49.48
2022-12-18T13:54:56.197Z,50.00
2022-12-18T13:59:59.639Z,50.67
2022-12-18T14:05:01.674Z,51.09
2022-12-18T14:10:26.079Z,51.99
2022-12-18T14:15:26.148Z,52.93
2022-12-18T14:20:30.916Z,53.27
2022-12-18T14:25:34.074Z,54.48
2022-12-18T14:30:39.779Z,55.67
2022-12-18T14:35:44.460Z,56.11
2022-12-18T14:40:46.702Z,56.63
2022-12-18T14:45:50.512Z,58.34
2022-12-18T14:51:14.910Z,59.13
2022-12-18T14:56:26.567Z,59.49
2022-12-18T15:01:36.113Z,60.66
2022-12-18T15:06:41.022Z,61.54
2022-12-18T15:11:42.966Z,62.42
2022-12-18T15:16:46.331Z,63.56
2022-12-18T15:21:48.534Z,64.56
2022-12-18T15:26:50.638Z,65.25
2022-12-18T15:32:01.084Z,65.24
2022-12-18T15:37:03.194Z,66.30
2022-12-18T15:42:28.672Z,66.35
2022-12-18T15:47:30.866Z,67.52
2022-12-18T15:52:41.064Z,67.03
2022-12-18T15:57:43.096Z,67.87
2022-12-18T16:02:45.296Z,68.37
2022-12-18T16:07:47.661Z,69.31
2022-12-18T16:12:49.729Z,70.36
2022-12-18T16:17:52.909Z,70.52
2022-12-18T16:22:55.054Z,71.07
2022-12-18T16:27:57.793Z,71.52
2022-12-18T16:33:00.130Z,71.51
2022-12-18T16:38:02.221Z,71.51
2022-12-18T16:43:04.252Z,72.12
2022-12-18T16:48:06.601Z,72.52
2022-12-18T16:53:08.666Z,72.37
2022-12-18T16:58:11.147Z,72.55
2022-12-18T17:03:13.315Z,73.75
2022-12-18T17:08:15.506Z,74.00
2022-12-18T17:13:21.381Z,74.04
2022-12-18T17:18:26.934Z,74.78
2022-12-18T17:23:30.054Z,74.94
2022-12-18T17:28:32.073Z,75.09
2022-12-18T17:33:34.121Z,75.28
2022-12-18T17:38:36.850Z,75.31
2022-12-18T17:43:47.658Z,76.07
2022-12-18T17:53:52.370Z,76.46
2022-12-18T17:58:54.666Z,76.95
2022-12-18T18:03:56.846Z,77.14
2022-12-18T18:08:58.952Z,77.52
2022-12-18T18:14:01.818Z,77.81
2022-12-18T18:19:06.833Z,77.91
2022-12-18T18:24:10.428Z,78.49
2022-12-18T18:29:21.204Z,78.47
2022-12-18T18:34:26.559Z,78.60
2022-12-18T18:39:29.490Z,78.74
2022-12-18T18:44:31.764Z,78.75
2022-12-18T18:49:34.325Z,79.11
2022-12-18T18:54:36.453Z,79.17
2022-12-18T18:59:38.587Z,79.68
2022-12-18T19:04:42.715Z,80.11
2022-12-18T19:09:51.980Z,80.26
2022-12-18T19:14:54.820Z,80.75
2022-12-18T19:19:56.862Z,81.41
2022-12-18T19:24:58.983Z,81.49
2022-12-18T19:30:01.088Z,81.91
2022-12-18T19:35:03.189Z,81.96
2022-12-18T19:40:12.303Z,82.20
2022-12-18T19:45:14.905Z,82.61
2022-12-18T19:50:17.679Z,82.33
2022-12-18T19:55:19.829Z,82.22
2022-12-18T20:00:22.011Z,81.82
2022-12-18T20:05:25.358Z,81.86
2022-12-18T20:10:27.438Z,82.04
2022-12-18T20:15:29.468Z,82.00
2022-12-18T20:20:31.530Z,81.97
2022-12-18T20:25:33.708Z,82.05
2022-12-18T20:30:35.920Z,82.07
2022-12-18T20:35:38.021Z,82.40
2022-12-18T20:40:43.412Z,82.16
2022-12-18T20:45:45.595Z,82.39
2022-12-18T20:51:06.027Z,82.89
2022-12-18T20:56:21.196Z,83.07
2022-12-18T21:01:25.174Z,83.11
2022-12-18T21:06:27.397Z,83.15
2022-12-18T21:11:50.626Z,83.13
2022-12-18T21:16:52.729Z,83.26
2022-12-18T21:21:56.332Z,83.58
2022-12-18T21:26:58.376Z,83.98
2022-12-18T21:32:02.154Z,84.14
2022-12-18T21:37:04.537Z,83.83
2022-12-18T21:42:25.932Z,83.38
2022-12-18T21:47:28.060Z,83.16
2022-12-18T21:52:32.098Z,83.11
2022-12-18T21:57:34.441Z,83.10
2022-12-18T22:02:36.544Z,83.08
2022-12-18T22:07:38.802Z,83.04
2022-12-18T22:12:44.087Z,82.90
2022-12-18T22:17:47.554Z,83.25
2022-12-18T22:22:51.761Z,83.88
2022-12-18T22:28:12.216Z,84.36
2022-12-18T22:33:14.320Z,84.54
2022-12-18T22:38:17.569Z,84.78
2022-12-18T22:43:19.587Z,84.78
2022-12-18T22:48:21.807Z,85.10
2022-12-18T22:53:24.381Z,85.12
2022-12-18T22:58:26.467Z,85.47
2022-12-18T23:03:28.620Z,85.30
2022-12-18T23:08:30.727Z,85.56
2022-12-18T23:13:34.322Z,85.38
2022-12-18T23:18:37.083Z,85.41
2022-12-18T23:23:39.456Z,85.22
2022-12-18T23:28:41.788Z,84.81
2022-12-18T23:33:45.424Z,84.29
2022-12-18T23:38:49.722Z,83.99
2022-12-18T23:43:53.041Z,84.11
2022-12-18T23:48:55.173Z,84.42
2022-12-18T23:54:00.992Z,84.61
2022-12-18T23:59:03.106Z,84.93
